Historical Weather Data

Kanab, UT VWS

Date ET
(Inches)
Rain
(Inches)
Temp °F
Humidity
Avg
Wind MPH
Avg
Solar Wm2
Avg
High Ave Low
06/01/2018 12:00 am 0.260 0.00 85.0 69.6 50.0 22 3.3 384
06/02/2018 12:00 am 0.280 0.00 89.0 74.1 59.0 18 3.8 379
06/03/2018 12:00 am 0.278 0.00 93.0 76.4 56.7 15 2.9 388
06/04/2018 12:00 am 0.298 0.00 94.0 77.3 56.0 16 3.4 387
06/05/2018 12:00 am 0.289 0.00 90.0 76.0 57.0 13 3.2 389
06/06/2018 12:00 am 0.294 0.00 90.0 74.5 56.0 17 3.6 388
06/07/2018 12:00 am 0.288 0.00 89.0 73.8 54.0 16 3.5 390
06/08/2018 12:00 am 0.274 0.00 91.0 74.4 54.0 13 2.6 392
06/09/2018 12:00 am 0.318 0.00 91.0 75.3 55.0 12 4.3 393
06/10/2018 12:00 am 0.312 0.00 86.0 73.5 55.0 15 5.2 391
06/11/2018 12:00 am 0.277 0.00 92.0 74.6 54.0 15 3.1 392
06/12/2018 12:00 am 0.279 0.00 95.0 77.9 55.0 14 2.7 389
06/13/2018 12:00 am 0.332 0.00 97.0 79.9 56.0 14 4.6 382
06/14/2018 12:00 am 0.338 0.00 94.0 79.3 61.0 16 5.4 376
06/15/2018 12:00 am 0.322 0.00 91.0 76.2 61.0 23 5.5 371
06/16/2018 12:00 am 0.192 0.03 80.0 72.4 66.0 48 3.8 253
06/17/2018 12:00 am 0.300 0.00 83.0 71.5 60.0 34 5.8 381
06/18/2018 12:00 am 0.273 0.00 85.0 71.1 53.0 24 3.4 389
06/19/2018 12:00 am 0.269 0.00 89.0 73.4 52.0 17 2.4 393
06/20/2018 12:00 am 0.263 0.00 97.0 76.0 59.0 19 2.7 393
06/21/2018 12:00 am 0.320 0.00 98.0 81.9 60.0 17 3.9 388
06/22/2018 12:00 am 0.302 0.00 96.0 80.6 62.0 16 3.6 390
06/23/2018 12:00 am 0.350 0.00 96.0 80.5 58.5 17 5.5 390
06/24/2018 12:00 am 0.305 0.00 93.0 78.9 56.0 21 4.1 386
06/25/2018 12:00 am 0.297 0.00 96.0 79.4 58.0 17 3.3 389
06/26/2018 12:00 am 0.291 0.00 99.0 82.3 61.0 14 2.7 391
06/27/2018 12:00 am 0.319 0.00 97.0 82.0 60.0 11 3.9 392
06/28/2018 12:00 am 0.360 0.00 95.0 79.4 58.0 10 5.9 392
06/29/2018 12:00 am 0.309 0.00 91.0 76.5 55.0 14 4.5 390
06/30/2018 12:00 am 0.286 0.00 91.0 76.0 56.0 16 3.0 391